sensor_id;sensor_type;location;lat;lon;timestamp;pressure;altitude;pressure_sealevel;temperature;humidity
19286;BME280;9776;50.798;6.430;2022-10-18T00:00:12;101153.44;;;17.63;82.11
19286;BME280;9776;50.798;6.430;2022-10-18T00:02:39;101148.91;;;17.64;81.93
19286;BME280;9776;50.798;6.430;2022-10-18T00:05:06;101155.28;;;17.63;81.72
19286;BME280;9776;50.798;6.430;2022-10-18T00:07:33;101147.44;;;17.61;81.96
19286;BME280;9776;50.798;6.430;2022-10-18T00:10:01;101153.25;;;17.65;81.59
19286;BME280;9776;50.798;6.430;2022-10-18T00:12:28;101144.25;;;17.66;81.64
19286;BME280;9776;50.798;6.430;2022-10-18T00:14:55;101147.75;;;17.66;81.94
19286;BME280;9776;50.798;6.430;2022-10-18T00:17:21;101153.44;;;17.63;81.97
19286;BME280;9776;50.798;6.430;2022-10-18T00:19:48;101146.44;;;17.62;81.89
19286;BME280;9776;50.798;6.430;2022-10-18T00:22:15;101130.75;;;17.59;82.04
19286;BME280;9776;50.798;6.430;2022-10-18T00:24:41;101137.94;;;17.58;82.06
19286;BME280;9776;50.798;6.430;2022-10-18T00:27:09;101135.25;;;17.58;82.00
19286;BME280;9776;50.798;6.430;2022-10-18T00:29:36;101137.28;;;17.56;82.08
19286;BME280;9776;50.798;6.430;2022-10-18T00:32:03;101136.13;;;17.51;82.24
19286;BME280;9776;50.798;6.430;2022-10-18T00:34:30;101139.97;;;17.48;82.51
19286;BME280;9776;50.798;6.430;2022-10-18T00:36:56;101135.63;;;17.47;82.53
19286;BME280;9776;50.798;6.430;2022-10-18T00:39:23;101136.63;;;17.46;82.34
19286;BME280;9776;50.798;6.430;2022-10-18T00:41:50;101140.81;;;17.41;82.96
19286;BME280;9776;50.798;6.430;2022-10-18T00:47:22;101141.81;;;17.48;82.46
19286;BME280;9776;50.798;6.430;2022-10-18T00:49:52;101135.09;;;17.52;82.44
19286;BME280;9776;50.798;6.430;2022-10-18T00:52:25;101131.94;;;17.56;82.04
19286;BME280;9776;50.798;6.430;2022-10-18T00:54:54;101131.13;;;17.56;82.17
19286;BME280;9776;50.798;6.430;2022-10-18T00:57:22;101125.78;;;17.56;82.09
19286;BME280;9776;50.798;6.430;2022-10-18T00:59:49;101124.94;;;17.55;82.20
19286;BME280;9776;50.798;6.430;2022-10-18T01:02:16;101126.75;;;17.55;82.30
19286;BME280;9776;50.798;6.430;2022-10-18T01:04:45;101128.09;;;17.59;82.03
19286;BME280;9776;50.798;6.430;2022-10-18T01:07:24;101115.75;;;17.58;82.00
19286;BME280;9776;50.798;6.430;2022-10-18T01:09:59;101122.75;;;17.59;82.01
19286;BME280;9776;50.798;6.430;2022-10-18T01:12:35;101121.28;;;17.56;82.03
19286;BME280;9776;50.798;6.430;2022-10-18T01:15:09;101126.13;;;17.45;82.58
19286;BME280;9776;50.798;6.430;2022-10-18T01:17:48;101124.84;;;17.33;83.18
19286;BME280;9776;50.798;6.430;2022-10-18T01:23:46;101126.47;;;17.03;84.33
19286;BME280;9776;50.798;6.430;2022-10-18T01:26:33;101123.63;;;17.05;84.25
19286;BME280;9776;50.798;6.430;2022-10-18T01:29:11;101129.47;;;17.08;84.22
19286;BME280;9776;50.798;6.430;2022-10-18T01:31:44;101127.59;;;17.17;84.00
19286;BME280;9776;50.798;6.430;2022-10-18T01:34:13;101133.75;;;17.25;83.89
19286;BME280;9776;50.798;6.430;2022-10-18T01:36:45;101133.50;;;17.35;83.40
19286;BME280;9776;50.798;6.430;2022-10-18T01:39:15;101140.19;;;17.39;83.34
19286;BME280;9776;50.798;6.430;2022-10-18T01:41:46;101131.63;;;17.43;83.06
19286;BME280;9776;50.798;6.430;2022-10-18T01:44:16;101134.16;;;17.45;83.34
19286;BME280;9776;50.798;6.430;2022-10-18T01:46:46;101126.78;;;17.47;83.08
19286;BME280;9776;50.798;6.430;2022-10-18T01:49:12;101130.59;;;17.52;83.12
19286;BME280;9776;50.798;6.430;2022-10-18T01:51:39;101126.75;;;17.55;82.87
19286;BME280;9776;50.798;6.430;2022-10-18T01:54:06;101140.13;;;17.55;83.20
19286;BME280;9776;50.798;6.430;2022-10-18T01:56:37;101136.94;;;17.51;83.23
19286;BME280;9776;50.798;6.430;2022-10-18T01:59:21;101138.84;;;17.35;83.84
19286;BME280;9776;50.798;6.430;2022-10-18T02:01:54;101129.88;;;17.28;84.13
19286;BME280;9776;50.798;6.430;2022-10-18T02:04:32;101132.56;;;17.28;84.10
19286;BME280;9776;50.798;6.430;2022-10-18T02:07:08;101135.38;;;17.34;83.97
19286;BME280;9776;50.798;6.430;2022-10-18T02:09:42;101138.84;;;17.43;83.70
19286;BME280;9776;50.798;6.430;2022-10-18T02:12:15;101141.16;;;17.46;83.40
19286;BME280;9776;50.798;6.430;2022-10-18T02:14:44;101143.28;;;17.50;83.29
19286;BME280;9776;50.798;6.430;2022-10-18T02:17:14;101149.16;;;17.54;83.22
19286;BME280;9776;50.798;6.430;2022-10-18T02:19:43;101150.78;;;17.55;83.41
19286;BME280;9776;50.798;6.430;2022-10-18T02:22:11;101149.47;;;17.51;83.47
19286;BME280;9776;50.798;6.430;2022-10-18T02:24:43;101151.81;;;17.54;83.37
19286;BME280;9776;50.798;6.430;2022-10-18T02:27:11;101156.78;;;17.49;83.50
19286;BME280;9776;50.798;6.430;2022-10-18T02:29:39;101152.53;;;17.40;83.87
19286;BME280;9776;50.798;6.430;2022-10-18T02:32:10;101156.72;;;17.34;84.00
19286;BME280;9776;50.798;6.430;2022-10-18T02:34:44;101149.91;;;17.24;84.24
19286;BME280;9776;50.798;6.430;2022-10-18T02:37:12;101149.59;;;17.19;84.47
19286;BME280;9776;50.798;6.430;2022-10-18T02:39:43;101151.28;;;17.20;84.25
19286;BME280;9776;50.798;6.430;2022-10-18T02:42:12;101146.94;;;17.19;84.54
19286;BME280;9776;50.798;6.430;2022-10-18T02:44:39;101147.47;;;17.14;84.49
19286;BME280;9776;50.798;6.430;2022-10-18T02:47:08;101144.28;;;17.11;84.52
19286;BME280;9776;50.798;6.430;2022-10-18T02:49:35;101146.78;;;17.12;84.61
19286;BME280;9776;50.798;6.430;2022-10-18T02:52:03;101147.63;;;17.13;84.70
19286;BME280;9776;50.798;6.430;2022-10-18T02:54:30;101146.78;;;17.12;84.63
19286;BME280;9776;50.798;6.430;2022-10-18T02:56:56;101146.44;;;17.15;84.42
19286;BME280;9776;50.798;6.430;2022-10-18T02:59:26;101148.09;;;17.16;84.50
19286;BME280;9776;50.798;6.430;2022-10-18T03:01:53;101150.59;;;17.18;84.34
19286;BME280;9776;50.798;6.430;2022-10-18T03:04:19;101141.75;;;17.17;84.48
19286;BME280;9776;50.798;6.430;2022-10-18T03:06:46;101140.09;;;17.16;84.46
19286;BME280;9776;50.798;6.430;2022-10-18T03:09:14;101144.25;;;17.19;84.28
19286;BME280;9776;50.798;6.430;2022-10-18T03:11:40;101141.94;;;17.16;84.62
19286;BME280;9776;50.798;6.430;2022-10-18T03:14:07;101137.75;;;17.21;84.55
19286;BME280;9776;50.798;6.430;2022-10-18T03:16:34;101138.44;;;17.15;84.71
19286;BME280;9776;50.798;6.430;2022-10-18T03:19:00;101122.94;;;17.11;84.92
19286;BME280;9776;50.798;6.430;2022-10-18T03:21:27;101126.97;;;17.07;85.00
19286;BME280;9776;50.798;6.430;2022-10-18T03:23:54;101115.78;;;17.03;84.95
19286;BME280;9776;50.798;6.430;2022-10-18T03:26:21;101116.47;;;17.05;85.12
19286;BME280;9776;50.798;6.430;2022-10-18T03:28:48;101121.47;;;17.08;84.86
19286;BME280;9776;50.798;6.430;2022-10-18T03:31:15;101122.28;;;17.09;84.78
19286;BME280;9776;50.798;6.430;2022-10-18T03:33:42;101122.63;;;17.06;84.89
19286;BME280;9776;50.798;6.430;2022-10-18T03:36:08;101123.66;;;16.96;85.10
19286;BME280;9776;50.798;6.430;2022-10-18T03:38:35;101119.16;;;16.89;85.58
19286;BME280;9776;50.798;6.430;2022-10-18T03:41:01;101120.34;;;16.86;85.89
19286;BME280;9776;50.798;6.430;2022-10-18T03:43:29;101127.50;;;16.86;85.81
19286;BME280;9776;50.798;6.430;2022-10-18T03:45:56;101133.69;;;16.86;86.03
19286;BME280;9776;50.798;6.430;2022-10-18T03:48:23;101128.19;;;16.88;85.76
19286;BME280;9776;50.798;6.430;2022-10-18T03:50:50;101132.84;;;16.94;85.38
19286;BME280;9776;50.798;6.430;2022-10-18T03:53:16;101125.66;;;16.94;85.43
19286;BME280;9776;50.798;6.430;2022-10-18T03:55:43;101121.16;;;16.95;85.50
19286;BME280;9776;50.798;6.430;2022-10-18T03:58:10;101130.00;;;16.95;85.39
19286;BME280;9776;50.798;6.430;2022-10-18T04:00:38;101139.66;;;16.96;85.30
19286;BME280;9776;50.798;6.430;2022-10-18T04:03:04;101142.00;;;16.91;85.68
19286;BME280;9776;50.798;6.430;2022-10-18T04:05:31;101135.16;;;16.97;85.29
19286;BME280;9776;50.798;6.430;2022-10-18T04:07:59;101145.97;;;17.03;85.32
19286;BME280;9776;50.798;6.430;2022-10-18T04:10:25;101145.28;;;17.10;85.01
19286;BME280;9776;50.798;6.430;2022-10-18T04:12:52;101150.97;;;17.07;85.31
19286;BME280;9776;50.798;6.430;2022-10-18T04:15:19;101160.63;;;17.08;85.45
19286;BME280;9776;50.798;6.430;2022-10-18T04:17:47;101157.63;;;17.11;85.33
19286;BME280;9776;50.798;6.430;2022-10-18T04:20:14;101159.78;;;17.15;85.22
19286;BME280;9776;50.798;6.430;2022-10-18T04:22:40;101155.91;;;17.18;85.07
19286;BME280;9776;50.798;6.430;2022-10-18T04:25:07;101158.25;;;17.21;84.85
19286;BME280;9776;50.798;6.430;2022-10-18T04:27:34;101157.25;;;17.22;84.72
19286;BME280;9776;50.798;6.430;2022-10-18T04:30:01;101163.78;;;17.19;85.04
19286;BME280;9776;50.798;6.430;2022-10-18T04:32:27;101157.28;;;17.14;85.30
19286;BME280;9776;50.798;6.430;2022-10-18T04:34:55;101157.28;;;17.14;85.39
19286;BME280;9776;50.798;6.430;2022-10-18T04:37:22;101155.63;;;17.13;85.20
19286;BME280;9776;50.798;6.430;2022-10-18T04:39:48;101150.63;;;17.10;85.39
19286;BME280;9776;50.798;6.430;2022-10-18T04:42:15;101157.78;;;17.09;85.20
19286;BME280;9776;50.798;6.430;2022-10-18T04:44:42;101157.28;;;17.14;85.39
19286;BME280;9776;50.798;6.430;2022-10-18T04:47:08;101164.13;;;17.16;85.20
19286;BME280;9776;50.798;6.430;2022-10-18T04:49:35;101168.91;;;17.21;84.86
19286;BME280;9776;50.798;6.430;2022-10-18T04:52:03;101163.44;;;17.22;84.88
19286;BME280;9776;50.798;6.430;2022-10-18T04:54:30;101160.22;;;17.27;84.55
19286;BME280;9776;50.798;6.430;2022-10-18T04:56:57;101159.25;;;17.28;84.67
19286;BME280;9776;50.798;6.430;2022-10-18T04:59:23;101158.22;;;17.29;84.49
19286;BME280;9776;50.798;6.430;2022-10-18T05:01:50;101151.03;;;17.29;84.42
19286;BME280;9776;50.798;6.430;2022-10-18T05:04:17;101164.72;;;17.26;84.51
19286;BME280;9776;50.798;6.430;2022-10-18T05:06:43;101167.25;;;17.28;84.47
19286;BME280;9776;50.798;6.430;2022-10-18T05:09:11;101170.22;;;17.33;84.49
19286;BME280;9776;50.798;6.430;2022-10-18T05:11:38;101167.91;;;17.30;84.31
19286;BME280;9776;50.798;6.430;2022-10-18T05:14:05;101168.09;;;17.28;84.36
19286;BME280;9776;50.798;6.430;2022-10-18T05:16:34;101169.22;;;17.26;84.50
19286;BME280;9776;50.798;6.430;2022-10-18T05:19:02;101171.91;;;17.26;84.49
19286;BME280;9776;50.798;6.430;2022-10-18T05:21:29;101172.28;;;17.23;84.39
19286;BME280;9776;50.798;6.430;2022-10-18T05:23:56;101174.94;;;17.23;84.41
19286;BME280;9776;50.798;6.430;2022-10-18T05:26:24;101182.94;;;17.23;84.49
19286;BME280;9776;50.798;6.430;2022-10-18T05:28:50;101178.59;;;17.22;84.62
19286;BME280;9776;50.798;6.430;2022-10-18T05:31:17;101180.78;;;17.18;84.60
19286;BME280;9776;50.798;6.430;2022-10-18T05:33:44;101189.63;;;17.19;84.69
19286;BME280;9776;50.798;6.430;2022-10-18T05:36:11;101188.78;;;17.18;84.45
19286;BME280;9776;50.798;6.430;2022-10-18T05:38:38;101194.44;;;17.15;84.74
19286;BME280;9776;50.798;6.430;2022-10-18T05:41:07;101184.97;;;17.13;84.65
19286;BME280;9776;50.798;6.430;2022-10-18T05:43:36;101190.94;;;17.15;84.55
19286;BME280;9776;50.798;6.430;2022-10-18T05:46:03;101186.63;;;17.14;84.70
19286;BME280;9776;50.798;6.430;2022-10-18T05:48:31;101175.63;;;17.17;84.69
19286;BME280;9776;50.798;6.430;2022-10-18T05:50:58;101175.44;;;17.18;84.47
19286;BME280;9776;50.798;6.430;2022-10-18T05:53:25;101178.75;;;17.20;84.40
19286;BME280;9776;50.798;6.430;2022-10-18T05:55:53;101178.59;;;17.22;84.55
19286;BME280;9776;50.798;6.430;2022-10-18T05:58:19;101187.25;;;17.24;84.59
19286;BME280;9776;50.798;6.430;2022-10-18T06:00:47;101181.28;;;17.22;84.56
19286;BME280;9776;50.798;6.430;2022-10-18T06:03:14;101191.94;;;17.22;84.56
19286;BME280;9776;50.798;6.430;2022-10-18T06:05:40;101179.78;;;17.19;84.61
19286;BME280;9776;50.798;6.430;2022-10-18T06:08:07;101181.94;;;17.16;84.83
19286;BME280;9776;50.798;6.430;2022-10-18T06:10:34;101187.09;;;17.17;84.73
19286;BME280;9776;50.798;6.430;2022-10-18T06:13:00;101174.59;;;17.18;84.75
19286;BME280;9776;50.798;6.430;2022-10-18T06:15:27;101177.28;;;17.18;84.92
19286;BME280;9776;50.798;6.430;2022-10-18T06:17:57;101174.59;;;17.18;84.76
19286;BME280;9776;50.798;6.430;2022-10-18T06:20:23;101175.28;;;17.12;85.20
19286;BME280;9776;50.798;6.430;2022-10-18T06:22:51;101181.44;;;17.12;85.03
19286;BME280;9776;50.798;6.430;2022-10-18T06:25:18;101179.94;;;17.18;85.06
19286;BME280;9776;50.798;6.430;2022-10-18T06:27:44;101182.94;;;17.23;84.87
19286;BME280;9776;50.798;6.430;2022-10-18T06:30:11;101186.59;;;17.22;84.83
19286;BME280;9776;50.798;6.430;2022-10-18T06:32:38;101178.06;;;17.26;84.74
19286;BME280;9776;50.798;6.430;2022-10-18T06:35:07;101183.91;;;17.30;84.60
19286;BME280;9776;50.798;6.430;2022-10-18T06:37:34;101188.06;;;17.32;84.65
19286;BME280;9776;50.798;6.430;2022-10-18T06:40:02;101183.22;;;17.36;84.48
19286;BME280;9776;50.798;6.430;2022-10-18T06:42:28;101196.22;;;17.39;84.43
19286;BME280;9776;50.798;6.430;2022-10-18T06:44:56;101198.06;;;17.38;84.14
19286;BME280;9776;50.798;6.430;2022-10-18T06:47:24;101206.25;;;17.37;84.40
19286;BME280;9776;50.798;6.430;2022-10-18T06:50:01;101221.91;;;17.32;84.33
19286;BME280;9776;50.798;6.430;2022-10-18T06:52:37;101220.44;;;17.29;84.45
19286;BME280;9776;50.798;6.430;2022-10-18T06:55:21;101218.97;;;17.19;84.76
19286;BME280;9776;50.798;6.430;2022-10-18T06:57:55;101215.63;;;17.25;84.72
19286;BME280;9776;50.798;6.430;2022-10-18T07:00:22;101230.13;;;17.22;84.79
19286;BME280;9776;50.798;6.430;2022-10-18T07:02:49;101230.59;;;17.26;84.83
19286;BME280;9776;50.798;6.430;2022-10-18T07:05:16;101235.28;;;17.24;84.76
19286;BME280;9776;50.798;6.430;2022-10-18T07:07:44;101236.31;;;17.23;84.95
19286;BME280;9776;50.798;6.430;2022-10-18T07:10:12;101234.13;;;17.18;85.07
19286;BME280;9776;50.798;6.430;2022-10-18T07:12:38;101243.66;;;17.13;85.31
19286;BME280;9776;50.798;6.430;2022-10-18T07:15:05;101241.63;;;17.15;85.03
19286;BME280;9776;50.798;6.430;2022-10-18T07:17:33;101245.63;;;17.19;85.06
19286;BME280;9776;50.798;6.430;2022-10-18T07:19:59;101249.66;;;17.23;84.72
19286;BME280;9776;50.798;6.430;2022-10-18T07:22:28;101254.31;;;17.21;84.91
19286;BME280;9776;50.798;6.430;2022-10-18T07:24:56;101250.13;;;17.26;84.52
19286;BME280;9776;50.798;6.430;2022-10-18T07:27:23;101249.63;;;17.31;84.42
19286;BME280;9776;50.798;6.430;2022-10-18T07:29:49;101253.44;;;17.36;84.34
19286;BME280;9776;50.798;6.430;2022-10-18T07:32:16;101256.44;;;17.41;83.91
19286;BME280;9776;50.798;6.430;2022-10-18T07:34:43;101261.09;;;17.47;83.78
19286;BME280;9776;50.798;6.430;2022-10-18T07:37:09;101269.59;;;17.51;83.90
19286;BME280;9776;50.798;6.430;2022-10-18T07:39:36;101276.41;;;17.53;83.89
19286;BME280;9776;50.798;6.430;2022-10-18T07:42:04;101277.94;;;17.56;83.45
19286;BME280;9776;50.798;6.430;2022-10-18T07:44:31;101276.25;;;17.55;83.69
19286;BME280;9776;50.798;6.430;2022-10-18T07:46:57;101277.75;;;17.57;83.42
19286;BME280;9776;50.798;6.430;2022-10-18T07:49:24;101286.44;;;17.60;83.53
19286;BME280;9776;50.798;6.430;2022-10-18T07:51:50;101289.28;;;17.58;83.46
19286;BME280;9776;50.798;6.430;2022-10-18T07:54:17;101290.25;;;17.49;83.61
19286;BME280;9776;50.798;6.430;2022-10-18T07:56:44;101291.94;;;17.50;83.80
19286;BME280;9776;50.798;6.430;2022-10-18T07:59:12;101296.94;;;17.53;83.58
19286;BME280;9776;50.798;6.430;2022-10-18T08:01:39;101297.13;;;17.51;83.84
19286;BME280;9776;50.798;6.430;2022-10-18T08:04:06;101294.94;;;17.55;83.76
19286;BME280;9776;50.798;6.430;2022-10-18T08:06:32;101287.28;;;17.60;83.52
19286;BME280;9776;50.798;6.430;2022-10-18T08:08:59;101287.28;;;17.60;83.43
19286;BME280;9776;50.798;6.430;2022-10-18T08:11:26;101289.44;;;17.56;83.63
19286;BME280;9776;50.798;6.430;2022-10-18T08:13:53;101301.63;;;17.59;83.42
19286;BME280;9776;50.798;6.430;2022-10-18T08:16:23;101296.25;;;17.67;83.08
19286;BME280;9776;50.798;6.430;2022-10-18T08:18:51;101298.59;;;17.70;83.02
19286;BME280;9776;50.798;6.430;2022-10-18T08:21:19;101295.91;;;17.70;83.15
19286;BME280;9776;50.798;6.430;2022-10-18T08:23:46;101307.59;;;17.69;82.94
19286;BME280;9776;50.798;6.430;2022-10-18T08:26:14;101308.28;;;17.71;83.06
19286;BME280;9776;50.798;6.430;2022-10-18T08:28:41;101308.56;;;17.76;82.69
19286;BME280;9776;50.798;6.430;2022-10-18T08:31:10;101306.91;;;17.83;82.65
19286;BME280;9776;50.798;6.430;2022-10-18T08:33:39;101317.88;;;17.88;82.43
19286;BME280;9776;50.798;6.430;2022-10-18T08:36:07;101313.72;;;17.78;82.60
19286;BME280;9776;50.798;6.430;2022-10-18T08:38:35;101321.28;;;17.74;82.84
19286;BME280;9776;50.798;6.430;2022-10-18T08:41:22;101328.94;;;17.69;82.78
19286;BME280;9776;50.798;6.430;2022-10-18T08:43:55;101330.63;;;17.70;82.69
19286;BME280;9776;50.798;6.430;2022-10-18T08:46:24;101329.78;;;17.70;82.90
19286;BME280;9776;50.798;6.430;2022-10-18T08:48:54;101330.28;;;17.73;82.70
19286;BME280;9776;50.798;6.430;2022-10-18T08:51:26;101328.25;;;17.75;82.37
19286;BME280;9776;50.798;6.430;2022-10-18T08:54:00;101335.13;;;17.70;82.86
19286;BME280;9776;50.798;6.430;2022-10-18T08:56:29;101336.81;;;17.71;82.88
19286;BME280;9776;50.798;6.430;2022-10-18T08:58:57;101343.09;;;17.78;82.76
19286;BME280;9776;50.798;6.430;2022-10-18T09:01:30;101335.47;;;17.75;82.72
19286;BME280;9776;50.798;6.430;2022-10-18T09:04:22;101332.94;;;17.73;82.66
19286;BME280;9776;50.798;6.430;2022-10-18T09:07:00;101339.09;;;17.82;82.54
19286;BME280;9776;50.798;6.430;2022-10-18T09:09:34;101346.63;;;17.78;82.49
19286;BME280;9776;50.798;6.430;2022-10-18T09:12:16;101340.63;;;17.76;82.63
19286;BME280;9776;50.798;6.430;2022-10-18T09:15:11;101337.63;;;17.71;82.32
19286;BME280;9776;50.798;6.430;2022-10-18T09:17:46;101341.31;;;17.70;82.70
19286;BME280;9776;50.798;6.430;2022-10-18T09:20:22;101337.94;;;17.76;82.51
19286;BME280;9776;50.798;6.430;2022-10-18T09:22:55;101336.09;;;17.85;82.21
19286;BME280;9776;50.798;6.430;2022-10-18T09:25:27;101344.75;;;17.95;82.11
19286;BME280;9776;50.798;6.430;2022-10-18T09:28:10;101350.22;;;18.01;81.49
19286;BME280;9776;50.798;6.430;2022-10-18T09:30:49;101342.69;;;18.05;81.44
19286;BME280;9776;50.798;6.430;2022-10-18T09:33:30;101360.88;;;18.09;81.28
19286;BME280;9776;50.798;6.430;2022-10-18T09:36:04;101364.91;;;18.05;81.32
19286;BME280;9776;50.798;6.430;2022-10-18T09:38:36;101366.94;;;17.95;81.95
19286;BME280;9776;50.798;6.430;2022-10-18T09:41:08;101365.44;;;17.93;81.83
19286;BME280;9776;50.798;6.430;2022-10-18T09:43:45;101372.97;;;17.97;81.82
19286;BME280;9776;50.798;6.430;2022-10-18T09:46:14;101371.59;;;18.01;81.48
19286;BME280;9776;50.798;6.430;2022-10-18T09:48:45;101374.44;;;18.00;81.58
19286;BME280;9776;50.798;6.430;2022-10-18T09:51:18;101373.44;;;17.93;81.68
19286;BME280;9776;50.798;6.430;2022-10-18T09:54:04;101368.31;;;17.83;81.81
19286;BME280;9776;50.798;6.430;2022-10-18T09:56:37;101372.97;;;17.89;81.96
19286;BME280;9776;50.798;6.430;2022-10-18T09:59:10;101377.28;;;17.98;81.67
19286;BME280;9776;50.798;6.430;2022-10-18T10:01:46;101378.75;;;18.01;81.57
19286;BME280;9776;50.798;6.430;2022-10-18T10:04:12;101377.91;;;18.08;81.21
19286;BME280;9776;50.798;6.430;2022-10-18T10:06:48;101378.88;;;18.15;80.73
19286;BME280;9776;50.798;6.430;2022-10-18T10:09:17;101383.72;;;18.20;80.78
19286;BME280;9776;50.798;6.430;2022-10-18T10:11:45;101383.19;;;18.25;80.67
19286;BME280;9776;50.798;6.430;2022-10-18T10:14:14;101390.25;;;18.18;80.83
19286;BME280;9776;50.798;6.430;2022-10-18T10:16:46;101384.41;;;18.14;80.83
19286;BME280;9776;50.798;6.430;2022-10-18T10:19:18;101384.22;;;18.15;81.19
19286;BME280;9776;50.798;6.430;2022-10-18T10:21:48;101390.91;;;18.20;81.06
19286;BME280;9776;50.798;6.430;2022-10-18T10:24:23;101392.34;;;18.30;80.60
19286;BME280;9776;50.798;6.430;2022-10-18T10:26:57;101392.09;;;18.48;80.26
19286;BME280;9776;50.798;6.430;2022-10-18T10:29:47;101401.44;;;18.60;79.79
19286;BME280;9776;50.798;6.430;2022-10-18T10:32:17;101400.69;;;18.74;79.38
19286;BME280;9776;50.798;6.430;2022-10-18T10:34:44;101399.50;;;18.77;79.34
19286;BME280;9776;50.798;6.430;2022-10-18T10:37:31;101399.34;;;18.78;78.89
19286;BME280;9776;50.798;6.430;2022-10-18T10:40:16;101399.97;;;18.80;78.83
19286;BME280;9776;50.798;6.430;2022-10-18T10:43:13;101403.13;;;18.61;79.28
19286;BME280;9776;50.798;6.430;2022-10-18T10:45:58;101405.78;;;18.61;79.48
19286;BME280;9776;50.798;6.430;2022-10-18T10:48:26;101404.34;;;18.73;79.12
19286;BME280;9776;50.798;6.430;2022-10-18T10:50:58;101405.63;;;18.85;78.91
19286;BME280;9776;50.798;6.430;2022-10-18T10:53:43;101397.19;;;18.96;78.12
19286;BME280;9776;50.798;6.430;2022-10-18T10:56:19;101401.81;;;19.10;77.76
19286;BME280;9776;50.798;6.430;2022-10-18T10:58:46;101405.97;;;19.13;77.48
19286;BME280;9776;50.798;6.430;2022-10-18T11:01:20;101405.06;;;19.20;77.37
19286;BME280;9776;50.798;6.430;2022-10-18T11:03:49;101406.59;;;19.38;76.70
19286;BME280;9776;50.798;6.430;2022-10-18T11:06:42;101407.50;;;19.53;75.99
19286;BME280;9776;50.798;6.430;2022-10-18T11:09:21;101404.72;;;19.61;75.67
19286;BME280;9776;50.798;6.430;2022-10-18T11:11:58;101411.44;;;19.79;75.17
19286;BME280;9776;50.798;6.430;2022-10-18T11:14:29;101418.38;;;20.47;73.56
19286;BME280;9776;50.798;6.430;2022-10-18T11:17:06;101416.25;;;21.14;71.10
19286;BME280;9776;50.798;6.430;2022-10-18T11:19:38;101410.97;;;21.70;69.25
19286;BME280;9776;50.798;6.430;2022-10-18T11:22:12;101406.75;;;21.61;69.05
19286;BME280;9776;50.798;6.430;2022-10-18T11:24:42;101400.78;;;21.37;69.64
19286;BME280;9776;50.798;6.430;2022-10-18T11:27:13;101398.63;;;21.26;69.88
19286;BME280;9776;50.798;6.430;2022-10-18T11:29:50;101390.06;;;21.99;67.84
19286;BME280;9776;50.798;6.430;2022-10-18T11:32:25;101392.38;;;23.24;64.13
19286;BME280;9776;50.798;6.430;2022-10-18T11:35:06;101393.41;;;24.59;60.00
19286;BME280;9776;50.798;6.430;2022-10-18T11:37:56;101396.91;;;25.28;57.17
19286;BME280;9776;50.798;6.430;2022-10-18T11:43:24;101391.81;;;26.31;54.00
19286;BME280;9776;50.798;6.430;2022-10-18T11:45:56;101387.44;;;27.19;51.14
19286;BME280;9776;50.798;6.430;2022-10-18T11:48:41;101387.06;;;27.04;51.30
19286;BME280;9776;50.798;6.430;2022-10-18T11:51:16;101382.34;;;27.64;50.13
19286;BME280;9776;50.798;6.430;2022-10-18T11:53:58;101393.63;;;28.19;48.62
19286;BME280;9776;50.798;6.430;2022-10-18T11:56:33;101380.47;;;27.12;50.60
19286;BME280;9776;50.798;6.430;2022-10-18T11:59:16;101387.72;;;25.85;53.27
19286;BME280;9776;50.798;6.430;2022-10-18T12:01:52;101380.00;;;24.83;55.42
19286;BME280;9776;50.798;6.430;2022-10-18T12:04:25;101370.50;;;24.23;56.80
19286;BME280;9776;50.798;6.430;2022-10-18T12:06:55;101370.09;;;24.20;57.16
19286;BME280;9776;50.798;6.430;2022-10-18T12:09:25;101371.03;;;25.88;52.90
19286;BME280;9776;50.798;6.430;2022-10-18T12:11:57;101371.69;;;27.74;48.54
19286;BME280;9776;50.798;6.430;2022-10-18T12:14:28;101363.81;;;28.76;46.02
19286;BME280;9776;50.798;6.430;2022-10-18T12:17:02;101364.31;;;28.33;46.18
19286;BME280;9776;50.798;6.430;2022-10-18T12:19:30;101362.75;;;27.62;47.51
19286;BME280;9776;50.798;6.430;2022-10-18T12:22:06;101365.56;;;27.90;46.82
19286;BME280;9776;50.798;6.430;2022-10-18T12:24:34;101349.13;;;28.08;46.61
19286;BME280;9776;50.798;6.430;2022-10-18T12:27:03;101366.28;;;28.77;45.14
19286;BME280;9776;50.798;6.430;2022-10-18T12:29:34;101353.44;;;29.89;42.81
19286;BME280;9776;50.798;6.430;2022-10-18T12:32:05;101353.97;;;29.53;43.14
19286;BME280;9776;50.798;6.430;2022-10-18T12:34:38;101353.41;;;28.44;45.23
19286;BME280;9776;50.798;6.430;2022-10-18T12:37:25;101347.53;;;27.61;46.59
19286;BME280;9776;50.798;6.430;2022-10-18T12:39:59;101360.91;;;26.98;47.39
19286;BME280;9776;50.798;6.430;2022-10-18T12:42:30;101353.59;;;26.21;49.31
19286;BME280;9776;50.798;6.430;2022-10-18T12:45:00;101360.13;;;25.77;49.79
19286;BME280;9776;50.798;6.430;2022-10-18T12:47:28;101356.50;;;25.65;50.18
19286;BME280;9776;50.798;6.430;2022-10-18T12:49:57;101357.38;;;25.34;50.63
19286;BME280;9776;50.798;6.430;2022-10-18T12:52:25;101357.13;;;24.86;51.69
19286;BME280;9776;50.798;6.430;2022-10-18T12:55:06;101347.16;;;24.49;52.42
19286;BME280;9776;50.798;6.430;2022-10-18T12:58:21;101353.13;;;23.93;53.61
19286;BME280;9776;50.798;6.430;2022-10-18T13:00:57;101343.66;;;23.64;54.06
19286;BME280;9776;50.798;6.430;2022-10-18T13:03:50;101350.44;;;23.93;53.51
19286;BME280;9776;50.798;6.430;2022-10-18T13:06:18;101360.16;;;25.27;50.73
19286;BME280;9776;50.798;6.430;2022-10-18T13:08:45;101350.13;;;26.14;48.58
19286;BME280;9776;50.798;6.430;2022-10-18T13:11:36;101351.47;;;26.05;48.26
19286;BME280;9776;50.798;6.430;2022-10-18T13:14:18;101356.75;;;26.36;47.77
19286;BME280;9776;50.798;6.430;2022-10-18T13:16:51;101355.00;;;26.71;47.02
19286;BME280;9776;50.798;6.430;2022-10-18T13:19:24;101362.06;;;26.61;46.71
19286;BME280;9776;50.798;6.430;2022-10-18T13:22:08;101356.81;;;25.93;47.98
19286;BME280;9776;50.798;6.430;2022-10-18T13:24:40;101357.09;;;25.67;48.77
19286;BME280;9776;50.798;6.430;2022-10-18T13:27:30;101348.97;;;24.93;50.21